Time;durP1;ratioP1;P1;durP2;ratioP2;P2;SDS_P1;SDS_P2;PMS_P1;PMS_P2;Temp;Humidity;BMP_temperature;BMP_pressure;BME280_temperature;BME280_humidity;BME280_pressure;Samples;Min_cycle;Max_cycle;Signal;HPM_P1;HPM_P2
2021/09/07 00:00:19;;;;;;;10.52;9.20;;;;;;;;;;5090021;28;20032;-73
2021/09/07 00:02:45;;;;;;;9.60;8.70;;;;;;;;;;5098596;28;20030;-73
2021/09/07 00:05:12;;;;;;;13.48;9.13;;;;;;;;;;5091564;28;20028;-69
2021/09/07 00:07:38;;;;;;;10.43;9.35;;;;;;;;;;5100548;28;20024;-74
2021/09/07 00:10:05;;;;;;;9.82;8.55;;;;;;;;;;5092447;28;20488;-73
2021/09/07 00:12:32;;;;;;;10.23;8.98;;;;;;;;;;5091856;28;20028;-69
2021/09/07 00:14:59;;;;;;;9.45;8.63;;;;;;;;;;5092365;28;20059;-73
2021/09/07 00:17:25;;;;;;;9.50;8.68;;;;;;;;;;5093823;28;20024;-71
2021/09/07 00:19:51;;;;;;;9.00;8.05;;;;;;;;;;5093535;28;20028;-74
2021/09/07 00:22:17;;;;;;;9.43;8.48;;;;;;;;;;5093929;28;20024;-74
2021/09/07 00:24:44;;;;;;;9.60;8.70;;;;;;;;;;5095794;28;20500;-71
2021/09/07 00:27:10;;;;;;;9.43;8.23;;;;;;;;;;5094238;28;20417;-72
2021/09/07 00:29:36;;;;;;;9.20;8.30;;;;;;;;;;5093141;28;20568;-73
2021/09/07 00:32:02;;;;;;;10.52;8.77;;;;;;;;;;5094417;28;20047;-72
2021/09/07 00:34:28;;;;;;;11.50;9.30;;;;;;;;;;5095986;28;20020;-73
2021/09/07 00:36:54;;;;;;;9.80;8.90;;;;;;;;;;5093452;28;20551;-74
2021/09/07 00:39:21;;;;;;;8.95;7.57;;;;;;;;;;5091766;28;20471;-73
2021/09/07 00:41:47;;;;;;;10.05;9.13;;;;;;;;;;5096825;28;20074;-74
2021/09/07 00:44:14;;;;;;;10.95;8.55;;;;;;;;;;5095658;28;20133;-73
2021/09/07 00:46:41;;;;;;;9.75;8.75;;;;;;;;;;5094357;28;20023;-73
2021/09/07 00:49:07;;;;;;;9.95;8.95;;;;;;;;;;5093686;28;20016;-74
2021/09/07 00:51:35;;;;;;;14.23;9.65;;;;;;;;;;5095106;28;20030;-73
2021/09/07 00:54:01;;;;;;;10.25;9.25;;;;;;;;;;5096476;28;20440;-73
2021/09/07 00:56:27;;;;;;;12.18;8.35;;;;;;;;;;5094333;28;20809;-73
2021/09/07 00:58:54;;;;;;;9.77;8.88;;;;;;;;;;5095693;28;20517;-70
2021/09/07 01:01:20;;;;;;;10.65;9.00;;;;;;;;;;5089867;28;20515;-73
2021/09/07 01:03:46;;;;;;;9.25;8.30;;;;;;;;;;5094764;28;20080;-73
2021/09/07 01:06:13;;;;;;;9.55;8.65;;;;;;;;;;5091221;28;20016;-73
2021/09/07 01:08:39;;;;;;;9.02;8.10;;;;;;;;;;5093845;28;20027;-73
2021/09/07 01:11:05;;;;;;;10.30;9.38;;;;;;;;;;5090323;28;20483;-74
2021/09/07 01:13:31;;;;;;;10.85;9.02;;;;;;;;;;5091790;28;20028;-70
2021/09/07 01:16:00;;;;;;;10.35;9.25;;;;;;;;;;5093328;28;20051;-73
2021/09/07 01:18:26;;;;;;;11.88;9.10;;;;;;;;;;5095544;28;20027;-73
2021/09/07 01:20:52;;;;;;;10.15;9.15;;;;;;;;;;5092768;28;20024;-71
2021/09/07 01:23:19;;;;;;;10.32;8.57;;;;;;;;;;5095894;28;20027;-73
2021/09/07 01:25:45;;;;;;;9.55;8.65;;;;;;;;;;5097441;28;20475;-72
2021/09/07 01:28:14;;;;;;;9.75;8.70;;;;;;;;;;5091978;28;20035;-73
2021/09/07 01:30:40;;;;;;;13.13;9.30;;;;;;;;;;5091079;28;20153;-74
2021/09/07 01:33:06;;;;;;;11.77;9.23;;;;;;;;;;5093569;28;20020;-69
2021/09/07 01:35:33;;;;;;;8.95;8.05;;;;;;;;;;5095545;28;20032;-71
2021/09/07 01:37:59;;;;;;;10.85;8.98;;;;;;;;;;5091581;28;20040;-73
2021/09/07 01:40:25;;;;;;;10.77;9.38;;;;;;;;;;5090795;28;20535;-74
2021/09/07 01:42:51;;;;;;;10.35;9.32;;;;;;;;;;5087198;28;20035;-74
2021/09/07 01:45:17;;;;;;;10.25;9.02;;;;;;;;;;5093773;28;20024;-73
2021/09/07 01:47:43;;;;;;;9.73;8.70;;;;;;;;;;5093012;28;20568;-73
2021/09/07 01:50:10;;;;;;;10.02;9.02;;;;;;;;;;5091587;28;20069;-73
2021/09/07 01:52:36;;;;;;;10.00;9.10;;;;;;;;;;5089183;28;20020;-73
2021/09/07 01:55:03;;;;;;;9.48;8.57;;;;;;;;;;5091718;28;20039;-69
2021/09/07 01:57:29;;;;;;;12.80;8.65;;;;;;;;;;5088498;28;20552;-73
2021/09/07 01:59:55;;;;;;;10.05;9.07;;;;;;;;;;5092394;28;20109;-74
2021/09/07 02:02:21;;;;;;;10.30;9.27;;;;;;;;;;5090294;28;20286;-73
2021/09/07 02:04:47;;;;;;;9.43;8.45;;;;;;;;;;5093326;28;20591;-74
2021/09/07 02:07:13;;;;;;;9.85;8.88;;;;;;;;;;5087640;28;20450;-74
2021/09/07 02:09:40;;;;;;;9.50;8.60;;;;;;;;;;5095007;28;20419;-72
2021/09/07 02:12:07;;;;;;;9.75;8.85;;;;;;;;;;5092744;28;20101;-72
2021/09/07 02:14:33;;;;;;;9.52;8.63;;;;;;;;;;5089404;28;20031;-73
2021/09/07 02:16:59;;;;;;;9.82;8.93;;;;;;;;;;5093394;28;20540;-73
2021/09/07 02:19:26;;;;;;;9.70;8.30;;;;;;;;;;5072266;28;20036;-73
2021/09/07 02:21:52;;;;;;;10.27;8.90;;;;;;;;;;5094290;28;20085;-71
2021/09/07 02:24:18;;;;;;;10.20;9.20;;;;;;;;;;5090918;28;20111;-72
2021/09/07 02:26:44;;;;;;;13.50;9.27;;;;;;;;;;5094232;28;20576;-73
2021/09/07 02:29:10;;;;;;;9.77;8.88;;;;;;;;;;5089204;28;20016;-73
2021/09/07 02:31:36;;;;;;;10.20;9.15;;;;;;;;;;5091603;28;20032;-72
2021/09/07 02:34:03;;;;;;;10.48;9.40;;;;;;;;;;5075326;28;20026;-73
2021/09/07 02:36:29;;;;;;;9.30;8.40;;;;;;;;;;5085016;28;20044;-73
2021/09/07 02:38:55;;;;;;;9.30;8.45;;;;;;;;;;5093973;27;20467;-73
2021/09/07 02:41:22;;;;;;;11.95;9.27;;;;;;;;;;5093316;28;20369;-72
2021/09/07 02:43:48;;;;;;;8.95;8.05;;;;;;;;;;5095368;28;20115;-72
2021/09/07 02:46:15;;;;;;;9.73;8.82;;;;;;;;;;5090323;28;20472;-73
2021/09/07 02:48:41;;;;;;;9.63;8.63;;;;;;;;;;5094314;28;20099;-74
2021/09/07 02:51:07;;;;;;;9.52;8.52;;;;;;;;;;5094244;28;20016;-72
2021/09/07 02:53:33;;;;;;;10.82;8.93;;;;;;;;;;5087229;28;20024;-74
2021/09/07 02:56:00;;;;;;;10.00;8.95;;;;;;;;;;5096756;28;20255;-73
2021/09/07 02:58:26;;;;;;;11.45;8.77;;;;;;;;;;5099078;28;20028;-73
2021/09/07 03:00:52;;;;;;;10.20;9.30;;;;;;;;;;5095820;28;20212;-70
2021/09/07 03:03:18;;;;;;;9.32;8.43;;;;;;;;;;5089397;28;20036;-73
2021/09/07 03:05:44;;;;;;;11.85;8.82;;;;;;;;;;5093905;28;20493;-72
2021/09/07 03:08:10;;;;;;;9.57;8.68;;;;;;;;;;5092625;28;20054;-73
2021/09/07 03:10:36;;;;;;;10.00;8.43;;;;;;;;;;5089729;28;20543;-73
2021/09/07 03:13:03;;;;;;;9.07;8.27;;;;;;;;;;5094634;28;20028;-74
2021/09/07 03:15:29;;;;;;;9.60;8.70;;;;;;;;;;5090019;28;20028;-73
2021/09/07 03:17:55;;;;;;;10.52;9.05;;;;;;;;;;5092578;28;20364;-72
2021/09/07 03:20:21;;;;;;;10.00;9.00;;;;;;;;;;5090319;28;20464;-74
2021/09/07 03:22:47;;;;;;;10.65;9.63;;;;;;;;;;5092922;28;20071;-73
2021/09/07 03:25:13;;;;;;;10.25;9.20;;;;;;;;;;5092069;28;20064;-73
2021/09/07 03:27:40;;;;;;;9.52;8.23;;;;;;;;;;5089817;28;20118;-72
2021/09/07 03:30:06;;;;;;;11.40;8.85;;;;;;;;;;5093222;28;20089;-73
2021/09/07 03:32:32;;;;;;;9.73;8.70;;;;;;;;;;5090899;28;20035;-72
2021/09/07 03:34:59;;;;;;;12.48;9.00;;;;;;;;;;5090233;28;20602;-73
2021/09/07 03:37:25;;;;;;;11.05;9.48;;;;;;;;;;5092698;28;20146;-73
2021/09/07 03:39:51;;;;;;;11.45;8.80;;;;;;;;;;5091407;28;20032;-72
2021/09/07 03:42:17;;;;;;;12.05;9.02;;;;;;;;;;5092790;28;20016;-73
2021/09/07 03:44:44;;;;;;;9.75;8.75;;;;;;;;;;5090496;28;20017;-72
2021/09/07 03:47:10;;;;;;;9.85;8.98;;;;;;;;;;5093089;28;20020;-72
2021/09/07 03:49:36;;;;;;;9.95;8.60;;;;;;;;;;5087132;28;20494;-73
2021/09/07 03:52:02;;;;;;;9.55;8.48;;;;;;;;;;5093469;28;20031;-73
2021/09/07 03:54:28;;;;;;;9.73;8.82;;;;;;;;;;5089076;28;20549;-74
2021/09/07 03:56:54;;;;;;;9.57;8.68;;;;;;;;;;5091360;28;20065;-72
2021/09/07 03:59:21;;;;;;;10.27;9.30;;;;;;;;;;5090789;28;20054;-73
2021/09/07 04:01:47;;;;;;;9.15;8.32;;;;;;;;;;5091146;28;20256;-72
2021/09/07 04:04:13;;;;;;;9.88;8.88;;;;;;;;;;5090657;28;20027;-73
2021/09/07 04:06:39;;;;;;;12.02;9.23;;;;;;;;;;5088907;28;20028;-73
2021/09/07 04:09:05;;;;;;;9.77;8.88;;;;;;;;;;5090832;28;20020;-73
2021/09/07 04:11:31;;;;;;;10.05;9.10;;;;;;;;;;5091325;28;20024;-73
2021/09/07 04:13:58;;;;;;;9.68;8.68;;;;;;;;;;5090253;28;20096;-73
2021/09/07 04:16:24;;;;;;;10.48;9.38;;;;;;;;;;5092147;28;20040;-73
2021/09/07 04:18:50;;;;;;;9.82;8.82;;;;;;;;;;5069713;28;20077;-71
2021/09/07 04:21:17;;;;;;;9.70;8.57;;;;;;;;;;5093485;28;20072;-73
2021/09/07 04:23:43;;;;;;;9.85;8.85;;;;;;;;;;5092175;28;20111;-73
2021/09/07 04:26:09;;;;;;;9.65;8.85;;;;;;;;;;5094458;28;20038;-73
2021/09/07 04:28:35;;;;;;;12.18;9.52;;;;;;;;;;5094347;28;20371;-73
2021/09/07 04:31:01;;;;;;;9.57;8.65;;;;;;;;;;5093256;28;20490;-72
2021/09/07 04:33:27;;;;;;;9.57;8.68;;;;;;;;;;5096570;28;20036;-73
2021/09/07 04:35:54;;;;;;;10.55;9.48;;;;;;;;;;5093587;28;21921;-73
2021/09/07 04:38:20;;;;;;;10.10;9.10;;;;;;;;;;5088551;28;20040;-73
2021/09/07 04:40:46;;;;;;;9.82;8.82;;;;;;;;;;5094067;28;20161;-72
2021/09/07 04:43:12;;;;;;;9.15;8.32;;;;;;;;;;5092134;28;20031;-74
2021/09/07 04:45:38;;;;;;;10.70;9.07;;;;;;;;;;5092940;28;20472;-73
2021/09/07 04:48:04;;;;;;;9.77;8.75;;;;;;;;;;5092185;28;20503;-73
2021/09/07 04:50:31;;;;;;;14.18;10.02;;;;;;;;;;5095832;28;20019;-74
2021/09/07 04:52:57;;;;;;;10.73;9.73;;;;;;;;;;5091694;28;20047;-72
2021/09/07 04:55:24;;;;;;;12.65;8.60;;;;;;;;;;5094430;28;20118;-74
2021/09/07 04:57:50;;;;;;;9.80;8.90;;;;;;;;;;5093407;28;20107;-72
2021/09/07 05:00:16;;;;;;;9.35;8.55;;;;;;;;;;5093917;28;20023;-72
2021/09/07 05:02:42;;;;;;;10.35;9.27;;;;;;;;;;5095231;28;20034;-72
2021/09/07 05:05:09;;;;;;;13.27;9.85;;;;;;;;;;5093935;28;20525;-74
2021/09/07 05:07:35;;;;;;;16.30;9.77;;;;;;;;;;5095904;28;20115;-74
2021/09/07 05:10:02;;;;;;;9.93;8.90;;;;;;;;;;5093076;28;20032;-74
2021/09/07 05:12:28;;;;;;;12.35;9.20;;;;;;;;;;5092327;28;20035;-73
2021/09/07 05:14:55;;;;;;;10.90;8.85;;;;;;;;;;5095261;28;20068;-74
2021/09/07 05:17:21;;;;;;;11.50;8.98;;;;;;;;;;5093769;28;20028;-71
2021/09/07 05:19:47;;;;;;;9.70;8.85;;;;;;;;;;5093094;28;20024;-74
2021/09/07 05:22:13;;;;;;;12.25;9.40;;;;;;;;;;5093357;28;20016;-74
2021/09/07 05:24:39;;;;;;;9.48;8.68;;;;;;;;;;5093698;28;20082;-74
2021/09/07 05:27:06;;;;;;;9.63;8.55;;;;;;;;;;5094819;28;20215;-69
2021/09/07 05:29:32;;;;;;;10.18;9.13;;;;;;;;;;5092043;28;20042;-73
2021/09/07 05:31:58;;;;;;;9.88;8.98;;;;;;;;;;5073415;28;20008;-73
2021/09/07 05:34:24;;;;;;;10.55;9.45;;;;;;;;;;5090679;28;20471;-74
2021/09/07 05:36:50;;;;;;;9.73;8.70;;;;;;;;;;5095518;28;20398;-74
2021/09/07 05:39:16;;;;;;;10.80;9.05;;;;;;;;;;5090682;28;20028;-74
2021/09/07 05:41:43;;;;;;;9.18;8.23;;;;;;;;;;5094446;28;20042;-73
2021/09/07 05:44:09;;;;;;;9.57;8.50;;;;;;;;;;5091816;28;20198;-72
2021/09/07 05:46:36;;;;;;;9.68;8.68;;;;;;;;;;5094062;28;20127;-73
2021/09/07 05:49:02;;;;;;;8.10;7.40;;;;;;;;;;5093025;28;20059;-71
2021/09/07 05:51:28;;;;;;;11.10;9.60;;;;;;;;;;5092009;28;20541;-73
2021/09/07 05:53:55;;;;;;;11.55;10.35;;;;;;;;;;5093252;28;20509;-73
2021/09/07 05:56:22;;;;;;;13.73;9.90;;;;;;;;;;5090999;28;20024;-74
2021/09/07 05:58:48;;;;;;;13.25;9.15;;;;;;;;;;5095586;28;20051;-73
2021/09/07 06:01:15;;;;;;;11.95;8.98;;;;;;;;;;5090666;28;20043;-74
2021/09/07 06:03:41;;;;;;;9.35;8.18;;;;;;;;;;5094443;28;20059;-74
2021/09/07 06:06:08;;;;;;;10.45;8.27;;;;;;;;;;5091031;28;20452;-72
2021/09/07 06:08:34;;;;;;;10.70;8.25;;;;;;;;;;5089922;28;20401;-73
2021/09/07 06:11:01;;;;;;;9.77;8.77;;;;;;;;;;5092857;28;20104;-74
2021/09/07 06:13:27;;;;;;;11.40;9.50;;;;;;;;;;5092959;28;20099;-73
2021/09/07 06:15:53;;;;;;;13.10;9.43;;;;;;;;;;5092370;28;20058;-72
2021/09/07 06:18:19;;;;;;;12.40;8.50;;;;;;;;;;5092103;28;20020;-74
2021/09/07 06:20:45;;;;;;;9.85;8.85;;;;;;;;;;5090800;28;20459;-73
2021/09/07 06:23:11;;;;;;;9.82;8.90;;;;;;;;;;5091696;28;20109;-73
2021/09/07 06:25:37;;;;;;;8.85;8.05;;;;;;;;;;5093123;28;20031;-73
2021/09/07 06:28:04;;;;;;;9.60;8.15;;;;;;;;;;5099425;28;20024;-74
2021/09/07 06:30:30;;;;;;;9.32;8.38;;;;;;;;;;5093042;28;20107;-73
2021/09/07 06:32:56;;;;;;;9.13;7.97;;;;;;;;;;5091142;28;20023;-73
2021/09/07 06:35:23;;;;;;;7.85;7.15;;;;;;;;;;5095350;28;20031;-69
2021/09/07 06:37:49;;;;;;;11.75;8.02;;;;;;;;;;5089243;28;20028;-71
2021/09/07 06:40:15;;;;;;;8.55;7.75;;;;;;;;;;5093611;28;20558;-73
2021/09/07 06:42:41;;;;;;;8.73;7.40;;;;;;;;;;5089654;28;20032;-73
2021/09/07 06:45:08;;;;;;;8.40;7.47;;;;;;;;;;5094606;28;20165;-74
2021/09/07 06:47:34;;;;;;;7.93;7.20;;;;;;;;;;5090740;28;20127;-73
2021/09/07 06:50:01;;;;;;;7.70;7.00;;;;;;;;;;5092745;28;20376;-74
2021/09/07 06:52:28;;;;;;;7.70;7.00;;;;;;;;;;5091104;28;20020;-72
2021/09/07 06:54:54;;;;;;;8.65;7.68;;;;;;;;;;5090836;28;20550;-73
2021/09/07 06:57:20;;;;;;;9.38;7.35;;;;;;;;;;5094358;28;20487;-74
2021/09/07 06:59:46;;;;;;;8.85;8.05;;;;;;;;;;5090047;28;20031;-73
2021/09/07 07:02:13;;;;;;;12.65;7.68;;;;;;;;;;5093414;28;20469;-70
2021/09/07 07:04:39;;;;;;;9.00;7.82;;;;;;;;;;5093941;28;20028;-73
2021/09/07 07:07:05;;;;;;;8.65;7.75;;;;;;;;;;5091195;28;20457;-74
2021/09/07 07:09:31;;;;;;;10.13;8.40;;;;;;;;;;5092191;28;20048;-74
2021/09/07 07:11:57;;;;;;;8.07;7.20;;;;;;;;;;5091897;28;20069;-74
2021/09/07 07:14:23;;;;;;;8.88;7.97;;;;;;;;;;5091811;28;20023;-73
2021/09/07 07:16:50;;;;;;;7.80;7.00;;;;;;;;;;5091028;28;20607;-71
2021/09/07 07:19:16;;;;;;;9.18;8.23;;;;;;;;;;5090826;28;20028;-72
2021/09/07 07:21:42;;;;;;;10.25;7.75;;;;;;;;;;5093619;28;20039;-71
2021/09/07 07:24:09;;;;;;;8.00;7.30;;;;;;;;;;5088652;28;20031;-74
2021/09/07 07:26:35;;;;;;;8.63;7.75;;;;;;;;;;5091701;28;20683;-74
2021/09/07 07:29:01;;;;;;;10.98;7.32;;;;;;;;;;5089026;28;20023;-73
2021/09/07 07:31:28;;;;;;;11.63;7.75;;;;;;;;;;5093643;28;20072;-73
2021/09/07 07:33:54;;;;;;;7.93;7.13;;;;;;;;;;5090490;28;20047;-73
2021/09/07 07:36:20;;;;;;;7.97;7.18;;;;;;;;;;5090114;28;20039;-73
2021/09/07 07:38:47;;;;;;;8.48;7.38;;;;;;;;;;5092094;28;20023;-73
2021/09/07 07:41:13;;;;;;;10.15;7.72;;;;;;;;;;5089418;28;20031;-73
2021/09/07 07:43:44;;;;;;;7.90;7.10;;;;;;;;;;5093891;28;20274;-73
2021/09/07 07:46:11;;;;;;;7.53;6.72;;;;;;;;;;5089364;28;20020;-73
2021/09/07 07:48:40;;;;;;;7.57;6.78;;;;;;;;;;5094411;28;20084;-72
2021/09/07 07:51:06;;;;;;;8.27;7.47;;;;;;;;;;5087600;28;20020;-73
2021/09/07 07:53:33;;;;;;;7.65;6.88;;;;;;;;;;5094052;28;20106;-71
2021/09/07 07:55:59;;;;;;;8.73;7.18;;;;;;;;;;5089537;28;20039;-73
2021/09/07 07:58:25;;;;;;;7.97;7.18;;;;;;;;;;5092548;28;20258;-72
2021/09/07 08:00:51;;;;;;;8.05;7.18;;;;;;;;;;5095200;28;20023;-73
2021/09/07 08:03:17;;;;;;;7.63;6.93;;;;;;;;;;5092547;28;20372;-74
2021/09/07 08:05:43;;;;;;;7.75;7.05;;;;;;;;;;5095094;28;20016;-73
2021/09/07 08:08:10;;;;;;;11.55;7.63;;;;;;;;;;5095203;28;20088;-74
2021/09/07 08:10:38;;;;;;;7.70;7.00;;;;;;;;;;5091576;28;20039;-73
2021/09/07 08:13:04;;;;;;;8.15;7.35;;;;;;;;;;5095766;28;20608;-74
2021/09/07 08:15:30;;;;;;;7.40;6.80;;;;;;;;;;5091997;28;20540;-74
2021/09/07 08:17:56;;;;;;;8.30;7.53;;;;;;;;;;5095690;28;20471;-74
2021/09/07 08:20:23;;;;;;;9.95;8.35;;;;;;;;;;5096870;28;20055;-71
2021/09/07 08:22:49;;;;;;;8.65;7.85;;;;;;;;;;5093084;28;20016;-73
2021/09/07 08:25:15;;;;;;;8.13;7.32;;;;;;;;;;5096889;28;20061;-74
2021/09/07 08:27:41;;;;;;;7.88;7.10;;;;;;;;;;5092760;28;20035;-73
2021/09/07 08:30:08;;;;;;;8.60;7.80;;;;;;;;;;5097367;28;20019;-72
2021/09/07 08:32:34;;;;;;;7.25;6.53;;;;;;;;;;5091985;28;20031;-70
2021/09/07 08:35:00;;;;;;;8.35;7.25;;;;;;;;;;5099628;28;20022;-72
2021/09/07 08:37:26;;;;;;;7.53;6.78;;;;;;;;;;5092504;28;20044;-74
2021/09/07 08:39:52;;;;;;;7.65;6.95;;;;;;;;;;5095830;28;20092;-74
2021/09/07 08:42:18;;;;;;;8.20;7.30;;;;;;;;;;5094931;28;20020;-70
2021/09/07 08:44:46;;;;;;;8.68;7.88;;;;;;;;;;5093771;28;20020;-73
2021/09/07 08:47:13;;;;;;;8.82;7.93;;;;;;;;;;5095100;28;20961;-74
2021/09/07 08:49:40;;;;;;;9.90;8.20;;;;;;;;;;5092815;28;20019;-73
2021/09/07 08:52:06;;;;;;;8.18;7.47;;;;;;;;;;5097597;28;20027;-72
2021/09/07 08:54:32;;;;;;;8.00;7.25;;;;;;;;;;5092557;28;20028;-70
2021/09/07 08:56:58;;;;;;;10.63;7.18;;;;;;;;;;5096569;28;20034;-74
2021/09/07 08:59:24;;;;;;;8.38;7.60;;;;;;;;;;5091781;28;20024;-72
2021/09/07 09:01:56;;;;;;;9.02;7.45;;;;;;;;;;5094333;28;20024;-74
2021/09/07 09:04:30;;;;;;;8.50;7.60;;;;;;;;;;5094981;28;20042;-73
2021/09/07 09:06:56;;;;;;;9.50;8.48;;;;;;;;;;5093858;28;20096;-71
2021/09/07 09:09:22;;;;;;;9.27;8.38;;;;;;;;;;5092052;28;20023;-73
2021/09/07 09:11:53;;;;;;;9.88;8.30;;;;;;;;;;5094948;28;20030;-73
2021/09/07 09:14:38;;;;;;;8.57;7.72;;;;;;;;;;5093988;28;20543;-73
2021/09/07 09:17:25;;;;;;;9.40;8.45;;;;;;;;;;5096827;28;20365;-73
2021/09/07 09:19:52;;;;;;;8.80;7.47;;;;;;;;;;5078225;28;20028;-70
2021/09/07 09:22:19;;;;;;;9.77;8.88;;;;;;;;;;5091950;28;20055;-74
2021/09/07 09:24:45;;;;;;;9.50;8.60;;;;;;;;;;5093457;28;20367;-74
2021/09/07 09:27:12;;;;;;;9.30;8.05;;;;;;;;;;5094308;28;20037;-71
2021/09/07 09:29:43;;;;;;;9.45;8.45;;;;;;;;;;5093244;28;20033;-73
2021/09/07 09:32:18;;;;;;;;;;;;;;;;;;5094581;28;20024;-72
2021/09/07 09:34:44;;;;;;;8.60;7.43;;;;;;;;;;5091706;28;20045;-74
2021/09/07 09:37:12;;;;;;;8.02;7.30;;;;;;;;;;5094412;28;20103;-73
2021/09/07 09:39:39;;;;;;;8.52;7.72;;;;;;;;;;5092249;28;20126;-72
2021/09/07 09:42:06;;;;;;;8.27;7.55;;;;;;;;;;5094385;28;20073;-74
2021/09/07 09:44:32;;;;;;;8.63;7.75;;;;;;;;;;5091121;28;20103;-72
2021/09/07 09:46:58;;;;;;;10.18;7.80;;;;;;;;;;5092764;28;20031;-73
2021/09/07 09:49:27;;;;;;;7.65;6.85;;;;;;;;;;5076364;28;20028;-73
2021/09/07 09:51:58;;;;;;;8.35;7.40;;;;;;;;;;5095138;28;20473;-73
2021/09/07 09:54:25;;;;;;;8.50;7.17;;;;;;;;;;5089764;28;20016;-74
2021/09/07 09:56:52;;;;;;;10.57;8.00;;;;;;;;;;5092633;28;20031;-73
2021/09/07 09:59:19;;;;;;;8.90;7.60;;;;;;;;;;5091594;28;20074;-73
2021/09/07 10:01:45;;;;;;;7.97;7.18;;;;;;;;;;5092701;28;20160;-70
2021/09/07 10:04:11;;;;;;;8.68;7.13;;;;;;;;;;5093633;28;20099;-73
2021/09/07 10:06:37;;;;;;;8.30;7.50;;;;;;;;;;5089832;28;20417;-70
2021/09/07 10:09:04;;;;;;;7.30;6.70;;;;;;;;;;5091178;28;20051;-73
2021/09/07 10:11:31;;;;;;;10.02;6.95;;;;;;;;;;5095569;28;20039;-74
2021/09/07 10:13:59;;;;;;;8.63;7.60;;;;;;;;;;5091318;28;20059;-73
2021/09/07 10:16:35;;;;;;;10.70;7.50;;;;;;;;;;5095876;28;20027;-74
2021/09/07 10:19:09;;;;;;;8.20;7.50;;;;;;;;;;5089387;28;20411;-73
2021/09/07 10:24:19;;;;;;;7.90;6.85;;;;;;;;;;5090884;28;20365;-73
2021/09/07 10:26:45;;;;;;;8.70;7.00;;;;;;;;;;5093347;28;20475;-74
2021/09/07 10:29:11;;;;;;;7.63;6.88;;;;;;;;;;5090967;28;20035;-73
2021/09/07 10:31:40;;;;;;;7.93;7.22;;;;;;;;;;5095767;28;20023;-74
2021/09/07 10:34:06;;;;;;;8.38;7.53;;;;;;;;;;5092256;28;20605;-73
2021/09/07 10:36:36;;;;;;;8.75;7.43;;;;;;;;;;5091905;28;20036;-74
2021/09/07 10:39:03;;;;;;;7.93;7.13;;;;;;;;;;5091781;28;20539;-73
2021/09/07 10:41:29;;;;;;;7.53;6.82;;;;;;;;;;5089527;28;20028;-74
2021/09/07 10:44:04;;;;;;;7.50;6.80;;;;;;;;;;5095114;28;20016;-73
2021/09/07 10:46:40;;;;;;;7.53;6.82;;;;;;;;;;5091351;28;20059;-74
2021/09/07 10:49:18;;;;;;;7.75;7.05;;;;;;;;;;5092405;28;20023;-72
2021/09/07 10:52:03;;;;;;;7.75;6.82;;;;;;;;;;5089084;28;20039;-72
2021/09/07 10:54:29;;;;;;;9.40;7.15;;;;;;;;;;5086457;28;20118;-73
2021/09/07 10:56:57;;;;;;;9.70;7.32;;;;;;;;;;5092915;28;20034;-72
2021/09/07 10:59:41;;;;;;;8.15;7.35;;;;;;;;;;5090997;28;20543;-72
2021/09/07 11:02:26;;;;;;;7.43;6.70;;;;;;;;;;5090434;28;20092;-73
2021/09/07 11:04:52;;;;;;;8.93;7.50;;;;;;;;;;5079357;28;20418;-72
2021/09/07 11:07:38;;;;;;;8.27;7.47;;;;;;;;;;5091312;28;20106;-72
2021/09/07 11:10:04;;;;;;;6.97;6.32;;;;;;;;;;5090114;28;20247;-72
2021/09/07 11:12:32;;;;;;;7.40;6.47;;;;;;;;;;5090467;28;20040;-72
2021/09/07 11:15:01;;;;;;;7.10;6.50;;;;;;;;;;5092192;28;20018;-72
2021/09/07 11:17:27;;;;;;;8.93;6.97;;;;;;;;;;5090708;28;20392;-72
2021/09/07 11:20:06;;;;;;;8.75;6.97;;;;;;;;;;5093513;28;20121;-71
2021/09/07 11:22:33;;;;;;;6.95;6.25;;;;;;;;;;5090755;28;20027;-70
2021/09/07 11:25:07;;;;;;;7.82;7.00;;;;;;;;;;5092211;28;20392;-72
2021/09/07 11:27:52;;;;;;;7.85;7.13;;;;;;;;;;5091140;28;20149;-71
2021/09/07 11:30:21;;;;;;;8.57;7.53;;;;;;;;;;5089586;28;20023;-72
2021/09/07 11:32:47;;;;;;;8.30;7.13;;;;;;;;;;5091693;28;20028;-69
2021/09/07 11:35:13;;;;;;;8.73;7.75;;;;;;;;;;5092468;28;20318;-71
2021/09/07 11:37:40;;;;;;;8.27;7.50;;;;;;;;;;5095119;28;20032;-72
2021/09/07 11:40:09;;;;;;;8.52;7.65;;;;;;;;;;5096198;28;20577;-72
2021/09/07 11:42:47;;;;;;;7.95;7.22;;;;;;;;;;5094821;28;20016;-72
2021/09/07 11:45:31;;;;;;;9.10;8.20;;;;;;;;;;5094611;28;20028;-72
2021/09/07 11:47:57;;;;;;;8.23;7.43;;;;;;;;;;5095606;28;20243;-68
2021/09/07 11:50:27;;;;;;;7.95;7.25;;;;;;;;;;5096527;28;20261;-71
2021/09/07 11:52:54;;;;;;;8.13;7.32;;;;;;;;;;5090331;28;20028;-72
2021/09/07 11:55:35;;;;;;;8.05;7.25;;;;;;;;;;5093632;28;20028;-73
2021/09/07 11:58:01;;;;;;;8.02;6.97;;;;;;;;;;5095436;28;20008;-73
2021/09/07 12:00:27;;;;;;;7.93;7.22;;;;;;;;;;5095055;28;20027;-70
2021/09/07 12:03:17;;;;;;;8.88;7.45;;;;;;;;;;5094884;28;20016;-73
2021/09/07 12:05:56;;;;;;;7.32;6.50;;;;;;;;;;5084919;28;20036;-72
2021/09/07 12:08:33;;;;;;;9.82;7.55;;;;;;;;;;5093849;28;20103;-71
2021/09/07 12:10:59;;;;;;;7.97;7.10;;;;;;;;;;5092267;28;20055;-72
2021/09/07 12:13:25;;;;;;;7.80;7.05;;;;;;;;;;5095856;28;20534;-72
2021/09/07 12:15:52;;;;;;;9.02;7.10;;;;;;;;;;5073251;28;20062;-72
2021/09/07 12:18:38;;;;;;;8.07;7.15;;;;;;;;;;5095523;28;20012;-72
2021/09/07 12:21:10;;;;;;;7.07;6.47;;;;;;;;;;5095423;28;20088;-73
2021/09/07 12:23:37;;;;;;;7.55;6.85;;;;;;;;;;5095437;28;20051;-73
2021/09/07 12:26:04;;;;;;;7.65;6.75;;;;;;;;;;5095023;28;20056;-72
2021/09/07 12:28:30;;;;;;;8.88;6.85;;;;;;;;;;5092718;28;20016;-72
2021/09/07 12:31:13;;;;;;;7.22;6.55;;;;;;;;;;5094325;28;20024;-72
2021/09/07 12:33:41;;;;;;;10.50;7.40;;;;;;;;;;5093798;28;20072;-73
2021/09/07 12:36:07;;;;;;;7.22;6.53;;;;;;;;;;5094090;28;20031;-72
2021/09/07 12:38:34;;;;;;;8.45;6.78;;;;;;;;;;5095316;28;20279;-72
2021/09/07 12:41:03;;;;;;;10.13;6.50;;;;;;;;;;5094073;28;20026;-73
2021/09/07 12:43:34;;;;;;;9.25;6.78;;;;;;;;;;5095143;28;20032;-72
2021/09/07 12:46:01;;;;;;;8.57;6.28;;;;;;;;;;5094388;28;20035;-72
2021/09/07 12:48:28;;;;;;;6.90;6.28;;;;;;;;;;5092986;28;20068;-73
2021/09/07 12:50:56;;;;;;;7.97;6.18;;;;;;;;;;5096240;28;20027;-72
2021/09/07 12:53:23;;;;;;;9.95;6.28;;;;;;;;;;5088735;28;20024;-73
2021/09/07 12:55:50;;;;;;;14.95;7.50;;;;;;;;;;5097696;28;20093;-73
2021/09/07 12:58:16;;;;;;;9.25;6.80;;;;;;;;;;5089371;28;20474;-73
2021/09/07 13:00:43;;;;;;;8.05;6.47;;;;;;;;;;5096465;28;20028;-72
2021/09/07 13:03:11;;;;;;;7.82;6.18;;;;;;;;;;5087521;28;20028;-72
2021/09/07 13:05:38;;;;;;;8.32;5.95;;;;;;;;;;5095395;28;20549;-72
2021/09/07 13:08:04;;;;;;;7.28;6.47;;;;;;;;;;5094315;28;20023;-72
2021/09/07 13:10:30;;;;;;;10.80;5.95;;;;;;;;;;5087601;28;20036;-72
2021/09/07 13:12:57;;;;;;;7.43;5.97;;;;;;;;;;5095482;28;20114;-72
2021/09/07 13:15:23;;;;;;;8.18;5.78;;;;;;;;;;5091888;28;20142;-70
2021/09/07 13:17:49;;;;;;;5.78;5.20;;;;;;;;;;5091979;28;20038;-69
2021/09/07 13:20:15;;;;;;;8.02;6.57;;;;;;;;;;5085711;28;20032;-71
2021/09/07 13:22:41;;;;;;;8.68;5.65;;;;;;;;;;5093116;28;20089;-72
2021/09/07 13:25:08;;;;;;;5.90;5.07;;;;;;;;;;5094773;28;20043;-72
2021/09/07 13:27:34;;;;;;;6.63;5.93;;;;;;;;;;5089023;28;20028;-71
2021/09/07 13:30:00;;;;;;;7.30;6.30;;;;;;;;;;5089482;28;20024;-73
2021/09/07 13:32:26;;;;;;;8.82;5.20;;;;;;;;;;5092523;28;20036;-73
2021/09/07 13:34:52;;;;;;;7.50;5.85;;;;;;;;;;5093839;28;20027;-72
2021/09/07 13:37:19;;;;;;;9.27;5.72;;;;;;;;;;5092363;28;20028;-72
2021/09/07 13:39:45;;;;;;;6.05;4.97;;;;;;;;;;5091496;28;20031;-71
2021/09/07 13:42:11;;;;;;;8.50;5.10;;;;;;;;;;5091161;28;20046;-71
2021/09/07 13:44:37;;;;;;;8.50;4.93;;;;;;;;;;5092511;28;20106;-73
2021/09/07 13:47:03;;;;;;;5.47;4.97;;;;;;;;;;5091520;28;20036;-71
2021/09/07 13:49:29;;;;;;;5.68;5.00;;;;;;;;;;5089786;28;20052;-70
2021/09/07 13:51:56;;;;;;;6.07;5.15;;;;;;;;;;5087482;28;20111;-72
2021/09/07 13:54:22;;;;;;;5.90;5.32;;;;;;;;;;5090096;28;20024;-71
2021/09/07 13:56:48;;;;;;;7.13;5.43;;;;;;;;;;5093993;28;20024;-71
2021/09/07 13:59:15;;;;;;;10.25;5.28;;;;;;;;;;5092006;28;20032;-71
2021/09/07 14:01:41;;;;;;;6.00;5.22;;;;;;;;;;5073264;28;20357;-69
2021/09/07 14:04:07;;;;;;;6.75;5.40;;;;;;;;;;5093653;28;20073;-68
2021/09/07 14:06:33;;;;;;;6.53;5.28;;;;;;;;;;5092333;28;20085;-71
2021/09/07 14:08:59;;;;;;;5.47;4.97;;;;;;;;;;5089757;28;20024;-69
2021/09/07 14:11:26;;;;;;;7.40;5.25;;;;;;;;;;5095396;28;20519;-68
2021/09/07 14:13:52;;;;;;;5.65;5.15;;;;;;;;;;5091654;28;20471;-69
2021/09/07 14:16:18;;;;;;;5.55;5.05;;;;;;;;;;5095763;28;20096;-72
2021/09/07 14:18:44;;;;;;;7.45;5.15;;;;;;;;;;5089346;28;20024;-69
2021/09/07 14:21:12;;;;;;;5.57;5.03;;;;;;;;;;5093658;28;20024;-68
2021/09/07 14:23:38;;;;;;;6.88;5.47;;;;;;;;;;5092623;28;20023;-69
2021/09/07 14:26:06;;;;;;;7.70;5.75;;;;;;;;;;5092591;28;20012;-68
2021/09/07 14:28:32;;;;;;;7.30;5.60;;;;;;;;;;5089858;28;20106;-69
2021/09/07 14:30:58;;;;;;;5.70;5.20;;;;;;;;;;5092207;28;20024;-68
2021/09/07 14:33:24;;;;;;;6.18;5.57;;;;;;;;;;5093987;28;20388;-68
2021/09/07 14:35:53;;;;;;;5.70;4.75;;;;;;;;;;5092318;28;20510;-69
2021/09/07 14:38:20;;;;;;;5.93;4.95;;;;;;;;;;5092628;28;20058;-69
2021/09/07 14:40:46;;;;;;;6.03;5.43;;;;;;;;;;5096154;28;20023;-68
2021/09/07 14:43:12;;;;;;;7.10;5.70;;;;;;;;;;5090700;28;20022;-68